El Arish, Egypt

7:06 PM EET on October 25, 2014 (GMT +0200)
El Arish International | Change Station
CLOSE
Current Station
Airport
Location: El Arish,
Elevation: 105 ft
Nearby Weather Stations

Elev 105 ft 31.07 °N, 33.84 °E | Updated 1 hour ago

Clear
Clear
73 °F
Feels Like 73 °F
N
0
Wind Variable Wind from North

Today
High -- | Low -- °F
--% Chance of Precip.
Yesterday
High -- | Low -- °F
Precip. -- in
5:54 AM 5:02 PM
Waxing Crescent, 3% visible
Pressure 29.95 in
Visibility -9999.0 miles
Clouds
Dew Point 57 °F
Humidity 57%
Rainfall 0.00 in
Snow Depth Not available.
UV Not available.
Pollen Not available.
Air Quality Not available.
Flu Activity Not available.
METAR HEAR 251600Z 00000KT CAVOK 23/14 Q1014 NOSIG

More Conditions Fewer Conditions

Pressure 29.95 in
Visibility -9999.0 miles
Clouds
Dew Point 57 °F
Humidity 57%
Rainfall 0.00 in
Snow Depth Not available.
UV Not available.
Pollen Not available.
Air Quality Not available.
Flu Activity Not available.
METAR HEAR 251600Z 00000KT CAVOK 23/14 Q1014 NOSIG

More Conditions Fewer Conditions

10-Day Weather Forecast

Almanac

Astronomy

Oct. 25, 2014 Rise Set
Actual Time 5:54 AM EET 5:02 PM EET
Civil Twilight 5:29 AM EET 5:27 PM EET
Nautical Twilight 5:01 AM EET 5:55 PM EET
Astronomical Twilight 4:33 AM EET 6:23 PM EET
Moon 7:08 AM EET 6:15 PM EET
Length of Visible Light 11h 57m
Length of Day
11h 08m
Tomorrow will be 1m 43s shorter.
Waxing Crescent, 3% of the Moon is Illuminated
Today
Waxing Crescent
Oct 30
First Quarter
Nov 6
Full
Nov 14
Last Quarter
Nov 22
New

Today's Extremes

Country Highs Country Lows

Community

WunderPhotos

Upload Photos

1,764,909 photos uploaded!

Nearby

Snow Depth

Not available.

Earthquake Activity

City Distance Mag. Time & Date
No recent earthquake activity has been reported nearby.
Minimum magnitude displayed is 2.5.

Coastal Water Temperatures

Place Temperature
No Stations Reporting

Nearby Weather Stations